createdAt,value
2018-08-03T00:00:59.526Z,26.02
2018-08-03T00:01:59.518Z,25.88
2018-08-03T00:02:59.514Z,25.81
2018-08-03T00:03:59.568Z,25.73
2018-08-03T00:04:59.695Z,25.72
2018-08-03T00:05:59.566Z,25.68
2018-08-03T00:06:59.508Z,25.69
2018-08-03T00:07:59.559Z,25.66
2018-08-03T00:08:59.541Z,25.65
2018-08-03T00:09:59.565Z,25.66
2018-08-03T00:10:59.527Z,25.67
2018-08-03T00:11:59.519Z,25.68
2018-08-03T00:12:59.563Z,25.68
2018-08-03T00:13:59.588Z,25.69
2018-08-03T00:14:59.561Z,25.69
2018-08-03T00:15:59.579Z,25.68
2018-08-03T00:16:59.560Z,25.69
2018-08-03T00:17:59.589Z,25.68
2018-08-03T00:18:59.563Z,25.68
2018-08-03T00:19:59.605Z,25.68
2018-08-03T00:20:59.554Z,25.68
2018-08-03T00:21:59.511Z,25.69
2018-08-03T00:22:59.530Z,25.73
2018-08-03T00:23:59.532Z,25.73
2018-08-03T00:24:59.604Z,25.71
2018-08-03T00:25:59.542Z,25.61
2018-08-03T00:26:59.550Z,25.64
2018-08-03T00:27:59.528Z,25.66
2018-08-03T00:28:59.554Z,25.66
2018-08-03T00:29:59.569Z,25.67
2018-08-03T00:30:59.561Z,25.67
2018-08-03T00:31:59.617Z,25.66
2018-08-03T00:32:59.547Z,25.63
2018-08-03T00:33:59.555Z,25.62
2018-08-03T00:34:59.637Z,25.64
2018-08-03T00:35:59.566Z,25.63
2018-08-03T00:36:59.584Z,25.62
2018-08-03T00:37:59.657Z,25.64
2018-08-03T00:38:59.586Z,25.63
2018-08-03T00:39:59.632Z,25.62
2018-08-03T00:40:59.561Z,25.57
2018-08-03T00:41:59.635Z,25.55
2018-08-03T00:42:59.556Z,25.56
2018-08-03T00:43:59.639Z,25.57
2018-08-03T00:44:59.638Z,25.58
2018-08-03T00:45:59.577Z,25.56
2018-08-03T00:46:59.627Z,25.58
2018-08-03T00:47:59.662Z,25.57
2018-08-03T00:48:59.629Z,25.59
2018-08-03T00:49:59.605Z,25.6
2018-08-03T00:50:59.636Z,25.6
2018-08-03T00:51:59.571Z,25.6
2018-08-03T00:52:59.678Z,25.64
2018-08-03T00:53:59.649Z,25.65
2018-08-03T00:54:59.619Z,25.66
2018-08-03T00:55:59.585Z,25.64
2018-08-03T00:56:59.815Z,25.64
2018-08-03T00:57:59.642Z,25.64
2018-08-03T00:58:59.644Z,25.64
2018-08-03T00:59:59.652Z,25.64
2018-08-03T01:00:59.706Z,25.66
2018-08-03T01:01:59.675Z,25.68
2018-08-03T01:02:59.647Z,25.66
2018-08-03T01:03:59.574Z,25.69
2018-08-03T01:04:59.598Z,25.69
2018-08-03T01:05:59.605Z,25.68
2018-08-03T01:06:59.653Z,25.68
2018-08-03T01:07:59.668Z,25.66
2018-08-03T01:08:59.616Z,25.67
2018-08-03T01:09:59.617Z,25.66
2018-08-03T01:10:59.625Z,25.69
2018-08-03T01:11:59.798Z,25.66
2018-08-03T01:12:59.664Z,25.69
2018-08-03T01:13:59.644Z,25.69
2018-08-03T01:14:59.655Z,25.66
2018-08-03T01:15:59.641Z,25.68
2018-08-03T01:16:59.654Z,25.67
2018-08-03T01:17:59.624Z,25.68
2018-08-03T01:18:59.772Z,25.65
2018-08-03T01:19:59.732Z,25.66
2018-08-03T01:20:59.603Z,25.65
2018-08-03T01:21:59.598Z,25.63
2018-08-03T01:22:59.618Z,25.64
2018-08-03T01:23:59.608Z,25.63
2018-08-03T01:24:59.721Z,25.63
2018-08-03T01:25:59.635Z,25.6
2018-08-03T01:26:59.764Z,25.62
2018-08-03T01:27:59.624Z,25.6
2018-08-03T01:28:59.676Z,25.6
2018-08-03T01:29:59.634Z,25.61
2018-08-03T01:30:59.638Z,25.58
2018-08-03T01:31:59.676Z,25.58
2018-08-03T01:32:59.644Z,25.57
2018-08-03T01:33:59.669Z,25.54
2018-08-03T01:34:59.650Z,25.54
2018-08-03T01:35:59.607Z,25.55
2018-08-03T01:36:59.695Z,25.52
2018-08-03T01:38:00.711Z,25.51
2018-08-03T01:38:59.634Z,25.48
2018-08-03T01:39:59.725Z,25.48
2018-08-03T01:40:59.643Z,25.49
2018-08-03T01:41:59.742Z,25.46
2018-08-03T01:42:59.646Z,25.47
2018-08-03T01:43:59.700Z,25.46
2018-08-03T01:44:59.669Z,25.46
2018-08-03T01:45:59.679Z,25.45
2018-08-03T01:46:59.663Z,25.44
2018-08-03T01:47:59.640Z,25.44
2018-08-03T01:48:59.648Z,25.41
2018-08-03T01:49:59.654Z,25.4
2018-08-03T01:50:59.867Z,25.35
2018-08-03T01:51:59.884Z,25.35
2018-08-03T01:52:59.660Z,25.37
2018-08-03T01:53:59.716Z,25.35
2018-08-03T01:54:59.675Z,25.33
2018-08-03T01:55:59.668Z,25.31
2018-08-03T01:56:59.666Z,25.31
2018-08-03T01:57:59.759Z,25.26
2018-08-03T01:59:00.125Z,25.25
2018-08-03T01:59:59.785Z,25.21
2018-08-03T02:00:59.756Z,25.19
2018-08-03T02:01:59.747Z,25.17
2018-08-03T02:02:59.768Z,25.12
2018-08-03T02:03:59.707Z,25.11
2018-08-03T02:04:59.848Z,25.09
2018-08-03T02:05:59.778Z,25.1
2018-08-03T02:06:59.755Z,25.05
2018-08-03T02:07:59.803Z,25.02
2018-08-03T02:09:00.017Z,25.03
2018-08-03T02:09:59.690Z,25.02
2018-08-03T02:10:59.766Z,24.99
2018-08-03T02:11:59.702Z,24.97
2018-08-03T02:12:59.678Z,24.93
2018-08-03T02:13:59.688Z,24.93
2018-08-03T02:14:59.803Z,24.92
2018-08-03T02:15:59.726Z,24.9
2018-08-03T02:16:59.777Z,24.87
2018-08-03T02:17:59.865Z,24.88
2018-08-03T02:18:59.806Z,24.88
2018-08-03T02:19:59.771Z,24.85
2018-08-03T02:20:59.913Z,24.88
2018-08-03T02:21:59.737Z,24.81
2018-08-03T02:22:59.757Z,24.81
2018-08-03T02:23:59.706Z,24.81
2018-08-03T02:24:59.744Z,24.83
2018-08-03T02:25:59.720Z,24.83
2018-08-03T02:26:59.842Z,24.86
2018-08-03T02:27:59.745Z,24.78
2018-08-03T02:28:59.770Z,24.75
2018-08-03T02:29:59.813Z,24.78
2018-08-03T02:30:59.700Z,24.76
2018-08-03T02:31:59.829Z,24.76
2018-08-03T02:32:59.723Z,24.77
2018-08-03T02:33:59.787Z,24.76
2018-08-03T02:34:59.825Z,24.76
2018-08-03T02:35:59.893Z,24.76
2018-08-03T02:36:59.982Z,24.75
2018-08-03T02:37:59.832Z,24.7
2018-08-03T02:38:59.734Z,24.69
2018-08-03T02:39:59.749Z,24.67
2018-08-03T02:40:59.726Z,24.7
2018-08-03T02:41:59.747Z,24.69
2018-08-03T02:42:59.814Z,24.67
2018-08-03T02:43:59.891Z,24.69
2018-08-03T02:44:59.786Z,24.67
2018-08-03T02:45:59.765Z,24.68
2018-08-03T02:46:59.754Z,24.67
2018-08-03T02:47:59.759Z,24.64
2018-08-03T02:48:59.761Z,24.64
2018-08-03T02:49:59.757Z,24.68
2018-08-03T02:50:59.758Z,24.66
2018-08-03T02:51:59.774Z,24.69
2018-08-03T02:52:59.839Z,24.67
2018-08-03T02:53:59.743Z,24.63
2018-08-03T02:54:59.809Z,24.62
2018-08-03T02:55:59.721Z,24.6
2018-08-03T02:56:59.773Z,24.6
2018-08-03T02:57:59.731Z,24.55
2018-08-03T02:58:59.755Z,24.56
2018-08-03T02:59:59.765Z,24.51
2018-08-03T03:00:59.770Z,24.51
2018-08-03T03:01:59.798Z,24.5
2018-08-03T03:02:59.797Z,24.48
2018-08-03T03:03:59.754Z,24.45
2018-08-03T03:04:59.733Z,24.43
2018-08-03T03:05:59.839Z,24.38
2018-08-03T03:06:59.791Z,24.38
2018-08-03T03:07:59.823Z,24.38
2018-08-03T03:08:59.822Z,24.38
2018-08-03T03:09:59.772Z,24.39
2018-08-03T03:10:59.765Z,24.39
2018-08-03T03:11:59.834Z,24.36
2018-08-03T03:12:59.868Z,24.37
2018-08-03T03:13:59.830Z,24.34
2018-08-03T03:14:59.875Z,24.36
2018-08-03T03:15:59.777Z,24.33
2018-08-03T03:16:59.761Z,24.3
2018-08-03T03:17:59.755Z,24.14
2018-08-03T03:18:59.778Z,24.14
2018-08-03T03:19:59.835Z,24.07
2018-08-03T03:20:59.830Z,24.07
2018-08-03T03:21:59.788Z,24.06
2018-08-03T03:22:59.768Z,24.07
2018-08-03T03:23:59.800Z,24.06
2018-08-03T03:24:59.905Z,24.03
2018-08-03T03:25:59.856Z,23.94
2018-08-03T03:27:00.000Z,23.93
2018-08-03T03:27:59.879Z,23.95
2018-08-03T03:28:59.811Z,23.96
2018-08-03T03:29:59.961Z,23.95
2018-08-03T03:30:59.891Z,23.95
2018-08-03T03:31:59.885Z,23.96
2018-08-03T03:32:59.825Z,23.96
2018-08-03T03:34:00.005Z,23.96
2018-08-03T03:34:59.789Z,23.93
2018-08-03T03:35:59.780Z,23.73
2018-08-03T03:36:59.794Z,23.74
2018-08-03T03:37:59.859Z,23.6
2018-08-03T03:38:59.819Z,23.66
2018-08-03T03:39:59.807Z,23.7
2018-08-03T03:40:59.992Z,23.65
2018-08-03T03:41:59.813Z,23.67
2018-08-03T03:42:59.881Z,23.68
2018-08-03T03:43:59.807Z,23.68
2018-08-03T03:44:59.851Z,23.67
2018-08-03T03:45:59.811Z,23.7
2018-08-03T03:46:59.948Z,23.7
2018-08-03T03:47:59.852Z,23.7
2018-08-03T03:48:59.803Z,23.71
2018-08-03T03:49:59.832Z,23.71
2018-08-03T03:51:00.312Z,23.71
2018-08-03T03:51:59.843Z,23.72
2018-08-03T03:52:59.813Z,23.72
2018-08-03T03:53:59.892Z,23.75
2018-08-03T03:54:59.921Z,23.76
2018-08-03T03:56:00.081Z,23.76
2018-08-03T03:56:59.913Z,23.77
2018-08-03T03:57:59.934Z,23.79
2018-08-03T03:58:59.879Z,23.82
2018-08-03T03:59:59.879Z,23.83
2018-08-03T04:00:59.814Z,23.83
2018-08-03T04:01:59.809Z,23.86
2018-08-03T04:02:59.822Z,23.83
2018-08-03T04:03:59.832Z,23.84
2018-08-03T04:04:59.830Z,23.87
2018-08-03T04:05:59.840Z,23.84
2018-08-03T04:06:59.827Z,23.86
2018-08-03T04:07:59.849Z,23.88
2018-08-03T04:08:59.855Z,23.86
2018-08-03T04:09:59.842Z,23.88
2018-08-03T04:11:00.800Z,23.92
2018-08-03T04:11:59.884Z,23.89
2018-08-03T04:12:59.835Z,23.9
2018-08-03T04:13:59.846Z,23.9
2018-08-03T04:14:59.839Z,23.89
2018-08-03T04:15:59.831Z,23.9
2018-08-03T04:16:59.882Z,23.89
2018-08-03T04:17:59.831Z,23.87
2018-08-03T04:18:59.849Z,23.89
2018-08-03T04:19:59.860Z,23.88
2018-08-03T04:20:59.884Z,23.88
2018-08-03T04:21:59.831Z,23.89
2018-08-03T04:22:59.856Z,23.89
2018-08-03T04:23:59.864Z,23.92
2018-08-03T04:25:00.037Z,23.91
2018-08-03T04:25:59.846Z,23.9
2018-08-03T04:27:00.058Z,23.9
2018-08-03T04:27:59.897Z,23.92
2018-08-03T04:28:59.921Z,23.94
2018-08-03T04:29:59.911Z,23.93
2018-08-03T04:30:59.921Z,23.93
2018-08-03T04:31:59.859Z,23.93
2018-08-03T04:32:59.829Z,23.94
2018-08-03T04:33:59.908Z,23.93
2018-08-03T04:34:59.931Z,23.93
2018-08-03T04:35:59.859Z,23.94
2018-08-03T04:36:59.959Z,23.94
2018-08-03T04:37:59.892Z,23.96
2018-08-03T04:39:00.528Z,23.97
2018-08-03T04:39:59.906Z,23.94
2018-08-03T04:40:59.892Z,23.97
2018-08-03T04:41:59.884Z,23.97
2018-08-03T04:42:59.899Z,23.99
2018-08-03T04:43:59.885Z,23.99
2018-08-03T04:44:59.950Z,24
2018-08-03T04:45:59.920Z,24
2018-08-03T04:47:00.028Z,24.02
2018-08-03T04:47:59.913Z,24.02
2018-08-03T04:48:59.878Z,24.04
2018-08-03T04:49:59.958Z,24.05
2018-08-03T04:50:59.984Z,24.05
2018-08-03T04:51:59.935Z,24.05
2018-08-03T04:52:59.902Z,24.05
2018-08-03T04:53:59.961Z,24.06
2018-08-03T04:54:59.934Z,24.09
2018-08-03T04:55:59.926Z,24.07
2018-08-03T04:56:59.883Z,24.07
2018-08-03T04:57:59.911Z,24.09
2018-08-03T04:58:59.943Z,24.07
2018-08-03T05:00:00.261Z,24.09
2018-08-03T05:00:59.928Z,24.1
2018-08-03T05:01:59.924Z,24.1
2018-08-03T05:03:00.065Z,24.1
2018-08-03T05:03:59.943Z,24.14
2018-08-03T05:04:59.910Z,24.11
2018-08-03T05:05:59.951Z,24.13
2018-08-03T05:06:59.974Z,24.15
2018-08-03T05:08:00.090Z,24.16
2018-08-03T05:08:59.959Z,24.16
2018-08-03T05:10:00.013Z,24.17
2018-08-03T05:10:59.912Z,24.17
2018-08-03T05:11:59.920Z,24.18
2018-08-03T05:12:59.984Z,24.21
2018-08-03T05:13:59.909Z,24.23
2018-08-03T05:14:59.908Z,24.25
2018-08-03T05:15:59.948Z,24.24
2018-08-03T05:16:59.922Z,24.24
2018-08-03T05:17:59.929Z,24.24
2018-08-03T05:18:59.985Z,24.24
2018-08-03T05:19:59.934Z,24.24
2018-08-03T05:20:59.917Z,24.25
2018-08-03T05:21:59.979Z,24.26
2018-08-03T05:23:00.116Z,24.27
2018-08-03T05:23:59.987Z,24.29
2018-08-03T05:24:59.932Z,24.29
2018-08-03T05:25:59.938Z,24.29
2018-08-03T05:26:59.911Z,24.29
2018-08-03T05:27:59.930Z,24.29
2018-08-03T05:28:59.963Z,24.3
2018-08-03T05:29:59.923Z,24.31
2018-08-03T05:30:59.959Z,24.32
2018-08-03T05:31:59.997Z,24.36
2018-08-03T05:32:59.964Z,24.37
2018-08-03T05:33:59.975Z,24.39
2018-08-03T05:35:00.001Z,24.42
2018-08-03T05:36:01.049Z,24.44
2018-08-03T05:36:59.934Z,24.44
2018-08-03T05:37:59.996Z,24.48
2018-08-03T05:39:00.090Z,24.48
2018-08-03T05:39:59.964Z,24.48
2018-08-03T05:41:00.135Z,24.5
2018-08-03T05:41:59.968Z,24.51
2018-08-03T05:43:00.118Z,24.53
2018-08-03T05:43:59.991Z,24.55
2018-08-03T05:44:59.993Z,24.54
2018-08-03T05:45:59.972Z,24.55
2018-08-03T05:47:00.494Z,24.55
2018-08-03T05:48:00.042Z,24.54
2018-08-03T05:49:00.135Z,24.57
2018-08-03T05:50:00.444Z,24.59
2018-08-03T05:51:00.068Z,24.61
2018-08-03T05:51:59.975Z,24.64
2018-08-03T05:52:59.976Z,24.64
2018-08-03T05:53:59.961Z,24.66
2018-08-03T05:55:00.219Z,24.68
2018-08-03T05:55:59.965Z,24.7
2018-08-03T05:56:59.976Z,24.72
2018-08-03T05:58:00.559Z,24.73
2018-08-03T05:59:00.235Z,24.75
2018-08-03T06:00:00.014Z,24.78
2018-08-03T06:01:00.053Z,24.8
2018-08-03T06:01:59.992Z,24.8
2018-08-03T06:03:00.141Z,24.83
2018-08-03T06:04:00.836Z,24.85
2018-08-03T06:04:59.962Z,24.87
2018-08-03T06:06:00.220Z,24.85
2018-08-03T06:07:00.042Z,24.86
2018-08-03T06:08:00.031Z,24.9
2018-08-03T06:08:59.992Z,24.91
2018-08-03T06:10:00.000Z,24.92
2018-08-03T06:11:00.134Z,24.93
2018-08-03T06:12:00.067Z,24.97
2018-08-03T06:13:00.037Z,24.98
2018-08-03T06:14:00.184Z,24.99
2018-08-03T06:15:00.178Z,25
2018-08-03T06:16:00.003Z,25
2018-08-03T06:17:00.070Z,25.03
2018-08-03T06:18:00.147Z,25.04
2018-08-03T06:19:00.317Z,25.04
2018-08-03T06:20:00.034Z,25.04
2018-08-03T06:21:00.070Z,25.04
2018-08-03T06:22:00.143Z,25.05
2018-08-03T06:23:00.005Z,25.09
2018-08-03T06:24:00.154Z,25.1
2018-08-03T06:25:00.159Z,25.1
2018-08-03T06:26:00.350Z,25.14
2018-08-03T06:27:00.183Z,25.15
2018-08-03T06:28:00.615Z,25.16
2018-08-03T06:29:00.087Z,25.18
2018-08-03T06:30:00.257Z,25.19
2018-08-03T06:31:00.241Z,25.22
2018-08-03T06:32:00.021Z,25.23
2018-08-03T06:33:00.026Z,25.24
2018-08-03T06:34:00.044Z,25.27
2018-08-03T06:35:00.041Z,25.25
2018-08-03T06:36:00.059Z,25.25
2018-08-03T06:37:00.052Z,25.28
2018-08-03T06:38:00.038Z,25.29
2018-08-03T06:39:00.063Z,25.32
2018-08-03T06:40:00.054Z,25.34
2018-08-03T06:41:00.063Z,25.34
2018-08-03T06:42:00.047Z,25.35
2018-08-03T06:43:00.078Z,25.35
2018-08-03T06:44:00.194Z,25.36
2018-08-03T06:45:00.115Z,25.36
2018-08-03T06:46:00.066Z,25.4
2018-08-03T06:47:00.073Z,25.42
2018-08-03T06:48:00.064Z,25.44
2018-08-03T06:49:00.068Z,25.47
2018-08-03T06:50:00.096Z,25.45
2018-08-03T06:51:00.111Z,25.49
2018-08-03T06:52:00.099Z,25.54
2018-08-03T06:53:00.073Z,25.55
2018-08-03T06:54:00.314Z,25.57
2018-08-03T06:55:00.070Z,25.57
2018-08-03T06:56:00.237Z,25.56
2018-08-03T06:57:00.115Z,25.59
2018-08-03T06:58:00.159Z,25.6
2018-08-03T06:59:00.419Z,25.61
2018-08-03T07:00:00.240Z,25.61
2018-08-03T07:01:00.253Z,25.63
2018-08-03T07:02:00.064Z,25.67
2018-08-03T07:03:00.977Z,25.72
2018-08-03T07:04:00.201Z,25.7
2018-08-03T07:05:00.126Z,25.73
2018-08-03T07:06:00.142Z,25.75
2018-08-03T07:07:00.095Z,25.79
2018-08-03T07:08:00.077Z,25.81
2018-08-03T07:09:00.153Z,25.85
2018-08-03T07:10:00.135Z,25.87
2018-08-03T07:11:00.252Z,25.91
2018-08-03T07:12:00.104Z,25.92
2018-08-03T07:13:00.240Z,25.93
2018-08-03T07:14:00.130Z,25.96
2018-08-03T07:15:01.104Z,25.99
2018-08-03T07:16:00.184Z,26
2018-08-03T07:17:00.091Z,26.01
2018-08-03T07:18:00.123Z,26
2018-08-03T07:19:00.241Z,26.03
2018-08-03T07:20:01.872Z,26.02
2018-08-03T07:21:00.126Z,26.04
2018-08-03T07:22:00.081Z,26.05
2018-08-03T07:23:00.100Z,26.1
2018-08-03T07:24:00.151Z,26.13
2018-08-03T07:25:00.117Z,26.18
2018-08-03T07:26:00.866Z,26.22
2018-08-03T07:27:00.158Z,26.24
2018-08-03T07:28:00.124Z,26.28
2018-08-03T07:29:00.142Z,26.27
2018-08-03T07:30:00.148Z,26.29
2018-08-03T07:31:00.330Z,26.3
2018-08-03T07:32:00.154Z,26.35
2018-08-03T07:33:00.336Z,26.38
2018-08-03T07:34:00.154Z,26.43
2018-08-03T07:35:00.172Z,26.48
2018-08-03T07:36:00.176Z,26.53
2018-08-03T07:37:01.142Z,26.55
2018-08-03T07:38:00.121Z,26.57
2018-08-03T07:39:00.256Z,26.6
2018-08-03T07:40:00.547Z,26.64
2018-08-03T07:41:00.146Z,26.67
2018-08-03T07:42:00.135Z,26.7
2018-08-03T07:43:01.192Z,26.74
2018-08-03T07:44:00.232Z,26.76
2018-08-03T07:45:00.744Z,26.78
2018-08-03T07:46:00.206Z,26.85
2018-08-03T07:47:00.141Z,26.9
2018-08-03T07:48:00.154Z,26.91
2018-08-03T07:49:00.132Z,26.92
2018-08-03T07:50:00.161Z,27
2018-08-03T07:51:00.162Z,27.04
2018-08-03T07:52:00.195Z,27.08
2018-08-03T07:53:00.203Z,27.11
2018-08-03T07:54:00.145Z,27.16
2018-08-03T07:55:00.126Z,27.24
2018-08-03T07:56:00.146Z,27.27
2018-08-03T07:57:00.141Z,27.29
2018-08-03T07:58:00.196Z,27.29
2018-08-03T07:59:00.146Z,27.33
2018-08-03T08:00:00.197Z,27.34
2018-08-03T08:01:00.147Z,27.3
2018-08-03T08:02:00.144Z,27.33
2018-08-03T08:03:00.207Z,27.43
2018-08-03T08:04:00.181Z,27.43
2018-08-03T08:05:00.156Z,27.46
2018-08-03T08:06:00.168Z,27.48
2018-08-03T08:07:00.169Z,27.54
2018-08-03T08:08:00.206Z,27.59
2018-08-03T08:09:00.210Z,27.57
2018-08-03T08:10:00.327Z,27.61
2018-08-03T08:11:00.365Z,27.66
2018-08-03T08:12:00.256Z,27.73
2018-08-03T08:13:00.287Z,27.73
2018-08-03T08:14:00.989Z,27.74
2018-08-03T08:15:00.526Z,27.82
2018-08-03T08:16:00.243Z,27.86
2018-08-03T08:17:01.067Z,27.91
2018-08-03T08:18:00.226Z,27.96
2018-08-03T08:19:00.275Z,28.04
2018-08-03T08:20:00.183Z,28
2018-08-03T08:21:00.179Z,27.97
2018-08-03T08:22:00.293Z,28.02
2018-08-03T08:23:00.241Z,28.01
2018-08-03T08:24:00.205Z,28.05
2018-08-03T08:25:00.282Z,28.06
2018-08-03T08:26:00.813Z,28.06
2018-08-03T08:27:00.283Z,28.06
2018-08-03T08:28:00.381Z,28.1
2018-08-03T08:29:00.236Z,28.1
2018-08-03T08:30:00.284Z,28.08
2018-08-03T08:31:00.337Z,28.08
2018-08-03T08:32:00.326Z,28.13
2018-08-03T08:33:00.288Z,28.3
2018-08-03T08:34:00.256Z,28.32
2018-08-03T08:35:00.333Z,28.29
2018-08-03T08:36:00.231Z,28.29
2018-08-03T08:37:00.944Z,28.33
2018-08-03T08:38:00.267Z,28.36
2018-08-03T08:39:00.558Z,28.47
2018-08-03T08:40:00.318Z,28.51
2018-08-03T08:41:00.315Z,28.51
2018-08-03T08:42:00.335Z,28.56
2018-08-03T08:43:00.285Z,28.59
2018-08-03T08:44:00.891Z,28.61
2018-08-03T08:45:00.311Z,28.56
2018-08-03T08:46:00.332Z,28.64
2018-08-03T08:47:00.297Z,28.62
2018-08-03T08:48:00.308Z,28.7
2018-08-03T08:49:00.406Z,28.73
2018-08-03T08:50:00.290Z,28.75
2018-08-03T08:51:00.533Z,28.78
2018-08-03T08:52:00.389Z,28.84
2018-08-03T08:53:00.964Z,28.91
2018-08-03T08:54:00.243Z,28.95
2018-08-03T08:55:00.282Z,29
2018-08-03T08:56:00.393Z,29.02
2018-08-03T08:57:00.278Z,28.97
2018-08-03T08:58:00.307Z,29.02
2018-08-03T08:59:00.774Z,29.05
2018-08-03T09:00:00.272Z,29.09
2018-08-03T09:01:01.476Z,29.13
2018-08-03T09:02:00.340Z,29.14
2018-08-03T09:03:00.324Z,29.17
2018-08-03T09:04:00.327Z,29.22
2018-08-03T09:05:00.287Z,29.26
2018-08-03T09:06:00.347Z,29.28
2018-08-03T09:07:00.353Z,29.36
2018-08-03T09:08:00.272Z,29.39
2018-08-03T09:09:00.289Z,29.41
2018-08-03T09:10:00.263Z,29.46
2018-08-03T09:11:00.344Z,29.48
2018-08-03T09:12:00.308Z,29.55
2018-08-03T09:13:00.635Z,29.6
2018-08-03T09:14:00.471Z,29.59
2018-08-03T09:15:00.349Z,29.63
2018-08-03T09:16:00.331Z,29.68
2018-08-03T09:17:00.310Z,29.72
2018-08-03T09:18:00.360Z,29.75
2018-08-03T09:19:00.307Z,29.82
2018-08-03T09:20:00.520Z,29.84
2018-08-03T09:21:00.340Z,29.81
2018-08-03T09:22:00.873Z,29.82
2018-08-03T09:23:00.354Z,29.85
2018-08-03T09:24:00.451Z,29.86
2018-08-03T09:25:00.309Z,29.88
2018-08-03T09:26:00.385Z,29.93
2018-08-03T09:27:00.275Z,29.94
2018-08-03T09:28:00.475Z,29.96
2018-08-03T09:29:00.331Z,30.01
2018-08-03T09:30:00.370Z,30.02
2018-08-03T09:31:01.024Z,30
2018-08-03T09:32:00.464Z,30.01
2018-08-03T09:33:00.464Z,30.03
2018-08-03T09:34:00.890Z,30.08
2018-08-03T09:35:00.374Z,30.1
2018-08-03T09:36:00.762Z,30.13
2018-08-03T09:37:00.324Z,30.2
2018-08-03T09:38:00.389Z,30.24
2018-08-03T09:39:00.379Z,30.37
2018-08-03T09:40:03.646Z,30.36
2018-08-03T09:41:00.416Z,30.32
2018-08-03T09:42:00.248Z,30.31
2018-08-03T09:43:01.808Z,30.32
2018-08-03T09:44:00.494Z,30.36
2018-08-03T09:45:00.662Z,30.38
2018-08-03T09:46:00.534Z,30.31
2018-08-03T09:47:00.582Z,30.28
2018-08-03T09:48:00.571Z,30.3
2018-08-03T09:49:00.324Z,30.33
2018-08-03T09:50:00.830Z,30.31
2018-08-03T09:51:00.548Z,30.36
2018-08-03T09:52:00.356Z,30.37
2018-08-03T09:53:00.320Z,30.37
2018-08-03T09:54:00.808Z,30.5
2018-08-03T09:55:00.711Z,30.5
2018-08-03T09:56:00.443Z,30.56
2018-08-03T09:57:00.346Z,30.63
2018-08-03T09:58:00.490Z,30.63
2018-08-03T09:59:00.395Z,30.71
2018-08-03T10:00:00.336Z,30.75
2018-08-03T10:01:00.371Z,30.82
2018-08-03T10:02:00.313Z,30.86
2018-08-03T10:03:00.469Z,30.87
2018-08-03T10:04:00.477Z,30.96
2018-08-03T10:05:00.588Z,30.92
2018-08-03T10:06:00.382Z,30.9
2018-08-03T10:07:00.322Z,30.89
2018-08-03T10:08:00.367Z,30.96
2018-08-03T10:09:00.352Z,30.98
2018-08-03T10:10:00.325Z,31.02
2018-08-03T10:11:00.336Z,31.09
2018-08-03T10:12:00.506Z,31.1
2018-08-03T10:13:00.367Z,31.16
2018-08-03T10:14:00.970Z,31.2
2018-08-03T10:15:00.375Z,31.25
2018-08-03T10:16:00.372Z,31.29
2018-08-03T10:17:00.375Z,31.31
2018-08-03T10:18:00.431Z,31.35
2018-08-03T10:19:00.374Z,31.36
2018-08-03T10:20:00.508Z,31.38
2018-08-03T10:21:00.297Z,31.37
2018-08-03T10:22:00.382Z,31.39
2018-08-03T10:23:00.327Z,31.39
2018-08-03T10:24:00.381Z,31.43
2018-08-03T10:25:00.340Z,31.45
2018-08-03T10:26:00.384Z,31.59
2018-08-03T10:27:00.392Z,31.57
2018-08-03T10:28:00.388Z,31.61
2018-08-03T10:29:00.487Z,31.75
2018-08-03T10:30:00.359Z,31.72
2018-08-03T10:31:00.439Z,31.78
2018-08-03T10:32:00.405Z,31.78
2018-08-03T10:33:00.364Z,32.02
2018-08-03T10:34:00.356Z,32.04
2018-08-03T10:35:00.790Z,32.06
2018-08-03T10:36:00.454Z,32.11
2018-08-03T10:37:00.465Z,32.02
2018-08-03T10:38:00.348Z,32.01
2018-08-03T10:39:00.434Z,32.03
2018-08-03T10:40:00.404Z,32.03
2018-08-03T10:41:00.348Z,32.09
2018-08-03T10:42:00.434Z,32.2
2018-08-03T10:43:01.244Z,32.34
2018-08-03T10:44:00.345Z,32.35
2018-08-03T10:45:00.608Z,32.37
2018-08-03T10:46:00.473Z,32.37
2018-08-03T10:47:00.878Z,32.41
2018-08-03T10:48:00.618Z,32.44
2018-08-03T10:49:00.575Z,32.39
2018-08-03T10:50:00.389Z,32.32
2018-08-03T10:51:00.387Z,32.32
2018-08-03T10:52:00.421Z,32.38
2018-08-03T10:53:00.410Z,32.43
2018-08-03T10:54:00.423Z,32.49
2018-08-03T10:55:00.440Z,32.53
2018-08-03T10:56:00.474Z,32.56
2018-08-03T10:57:00.474Z,32.59
2018-08-03T10:58:00.516Z,32.62
2018-08-03T10:59:00.425Z,32.62
2018-08-03T11:00:00.460Z,32.68
2018-08-03T11:01:00.552Z,32.69
2018-08-03T11:02:00.421Z,32.74
2018-08-03T11:03:00.615Z,32.73
2018-08-03T11:04:00.488Z,32.74
2018-08-03T11:05:00.462Z,32.82
2018-08-03T11:06:00.417Z,32.84
2018-08-03T11:07:00.353Z,32.81
2018-08-03T11:08:00.453Z,32.84
2018-08-03T11:09:00.610Z,32.9
2018-08-03T11:10:00.433Z,32.99
2018-08-03T11:11:00.575Z,33.06
2018-08-03T11:12:00.409Z,33.06
2018-08-03T11:13:00.394Z,33.07
2018-08-03T11:14:06.651Z,33.08
2018-08-03T11:15:00.448Z,33.11
2018-08-03T11:16:00.566Z,33.19
2018-08-03T11:17:00.380Z,33.23
2018-08-03T11:18:00.380Z,33.25
2018-08-03T11:19:00.596Z,33.31
2018-08-03T11:20:00.432Z,33.31
2018-08-03T11:21:00.539Z,33.33
2018-08-03T11:22:00.490Z,33.36
2018-08-03T11:23:00.440Z,33.37
2018-08-03T11:24:00.959Z,33.4
2018-08-03T11:25:00.521Z,33.45
2018-08-03T11:26:00.448Z,33.51
2018-08-03T11:27:00.382Z,33.52
2018-08-03T11:28:00.550Z,33.53
2018-08-03T11:29:00.569Z,33.58
2018-08-03T11:30:00.553Z,33.6
2018-08-03T11:31:00.474Z,33.56
2018-08-03T11:32:00.652Z,33.47
2018-08-03T11:33:00.741Z,33.43
2018-08-03T11:34:00.396Z,33.5
2018-08-03T11:35:00.471Z,33.55
2018-08-03T11:36:00.451Z,33.57
2018-08-03T11:37:00.534Z,33.59
2018-08-03T11:38:00.637Z,33.65
2018-08-03T11:39:00.626Z,33.69
2018-08-03T11:40:00.669Z,33.71
2018-08-03T11:41:00.620Z,33.78
2018-08-03T11:42:00.531Z,33.82
2018-08-03T11:43:00.573Z,33.83
2018-08-03T11:44:00.442Z,33.85
2018-08-03T11:45:00.637Z,33.91
2018-08-03T11:46:00.480Z,33.96
2018-08-03T11:47:00.557Z,34.02
2018-08-03T11:48:00.567Z,34.08
2018-08-03T11:49:00.654Z,34.12
2018-08-03T11:50:00.565Z,34.11
2018-08-03T11:51:04.785Z,34.12
2018-08-03T11:52:00.637Z,34.16
2018-08-03T11:53:00.595Z,34.25
2018-08-03T11:54:01.028Z,34.31
2018-08-03T11:55:00.622Z,34.35
2018-08-03T11:56:00.648Z,34.34
2018-08-03T11:57:05.050Z,34.33
2018-08-03T11:58:00.531Z,34.31
2018-08-03T11:59:00.538Z,34.16
2018-08-03T12:00:00.751Z,34.16
2018-08-03T12:01:01.629Z,34.18
2018-08-03T12:02:01.604Z,34.23
2018-08-03T12:03:00.757Z,34.27
2018-08-03T12:04:04.475Z,34.33
2018-08-03T12:05:00.693Z,34.37
2018-08-03T12:06:00.593Z,34.4
2018-08-03T12:07:00.609Z,34.46
2018-08-03T12:08:00.493Z,34.51
2018-08-03T12:09:00.465Z,34.53
2018-08-03T12:10:00.602Z,34.59
2018-08-03T12:11:00.502Z,34.62
2018-08-03T12:12:00.508Z,34.63
2018-08-03T12:13:00.639Z,34.65
2018-08-03T12:14:00.658Z,34.67
2018-08-03T12:15:01.719Z,34.7
2018-08-03T12:16:00.563Z,34.69
2018-08-03T12:17:00.779Z,34.7
2018-08-03T12:18:01.676Z,34.74
2018-08-03T12:19:00.621Z,34.76
2018-08-03T12:20:00.693Z,34.78
2018-08-03T12:21:00.572Z,34.79
2018-08-03T12:22:00.705Z,34.8
2018-08-03T12:23:00.600Z,34.84
2018-08-03T12:24:01.650Z,34.86
2018-08-03T12:25:00.643Z,34.89
2018-08-03T12:26:00.624Z,34.87
2018-08-03T12:27:00.629Z,34.92
2018-08-03T12:28:01.580Z,34.95
2018-08-03T12:29:00.548Z,34.92
2018-08-03T12:30:00.759Z,34.91
2018-08-03T12:31:00.539Z,34.92
2018-08-03T12:32:00.771Z,34.96
2018-08-03T12:33:00.528Z,34.95
2018-08-03T12:34:00.510Z,34.9
2018-08-03T12:35:00.812Z,34.88
2018-08-03T12:36:00.652Z,34.91
2018-08-03T12:37:00.927Z,34.89
2018-08-03T12:38:00.577Z,34.88
2018-08-03T12:39:00.620Z,34.94
2018-08-03T12:40:00.754Z,34.95
2018-08-03T12:41:01.721Z,34.98
2018-08-03T12:42:00.753Z,35.01
2018-08-03T12:43:04.438Z,35.04
2018-08-03T12:44:00.655Z,35.11
2018-08-03T12:45:00.753Z,35.16
2018-08-03T12:46:01.338Z,35.15
2018-08-03T12:47:00.697Z,35.17
2018-08-03T12:48:00.529Z,35.17
2018-08-03T12:49:00.576Z,35.21
2018-08-03T12:50:00.564Z,35.19
2018-08-03T12:51:00.533Z,35.24
2018-08-03T12:52:00.505Z,35.27
2018-08-03T12:53:01.442Z,35.25
2018-08-03T12:54:01.824Z,35.27
2018-08-03T12:55:00.601Z,35.29
2018-08-03T12:56:00.524Z,35.3